Time;durP1;ratioP1;P1;durP2;ratioP2;P2;SDS_P1;SDS_P2;PMS_P1;PMS_P2;Temp;Humidity;BMP_temperature;BMP_pressure;BME280_temperature;BME280_humidity;BME280_pressure;Samples;Min_cycle;Max_cycle;Signal;HPM_P1;HPM_P2
2022/02/05 00:02:13;;;;;;;15.60;2.90;;;5.10;99.90;;;;;;5036646;28;20488;-55
2022/02/05 00:04:38;;;;;;;13.48;2.47;;;5.00;99.90;;;;;;5022224;28;20052;-51
2022/02/05 00:07:07;;;;;;;15.40;2.90;;;5.00;99.90;;;;;;5019547;28;20779;-50
2022/02/05 00:33:11;;;;;;;18.10;2.45;;;4.90;99.90;;;;;;5051586;28;20088;-52
2022/02/05 00:42:27;;;;;;;12.48;2.42;;;5.20;99.90;;;;;;5034847;28;20045;-51
2022/02/05 00:44:53;;;;;;;16.95;2.92;;;5.20;99.90;;;;;;5035679;28;20049;-49
2022/02/05 00:47:19;;;;;;;20.95;3.20;;;5.20;99.90;;;;;;5038971;28;20041;-49
2022/02/05 00:49:50;;;;;;;19.90;2.83;;;5.30;99.90;;;;;;5025224;28;20099;-50
2022/02/05 00:52:18;;;;;;;18.80;2.67;;;5.30;99.90;;;;;;5034879;28;20366;-51
2022/02/05 00:54:48;;;;;;;12.93;2.38;;;5.30;99.90;;;;;;5034920;28;20049;-51
2022/02/05 00:57:32;;;;;;;13.38;2.40;;;5.30;99.90;;;;;;5014848;28;20116;-51
2022/02/05 00:59:58;;;;;;;15.75;2.70;;;5.30;99.90;;;;;;5033257;28;20037;-50
2022/02/05 01:02:23;;;;;;;14.10;2.42;;;5.30;99.90;;;;;;5049835;28;20047;-52
2022/02/05 01:04:49;;;;;;;18.40;2.60;;;5.30;99.90;;;;;;5053998;28;20045;-52
2022/02/05 01:07:15;;;;;;;16.25;2.40;;;5.30;99.90;;;;;;5052812;28;20041;-53
2022/02/05 01:09:44;;;;;;;15.32;2.55;;;5.30;99.90;;;;;;5036519;28;20047;-52
2022/02/05 01:12:10;;;;;;;14.25;2.42;;;5.30;99.90;;;;;;5020936;28;20498;-50
2022/02/05 01:14:45;;;;;;;15.93;2.50;;;5.30;99.90;;;;;;5032612;28;20067;-50
2022/02/05 01:17:12;;;;;;;15.52;2.47;;;5.30;99.90;;;;;;5034273;28;20045;-55
2022/02/05 01:22:16;;;;;;;16.08;2.63;;;5.30;99.90;;;;;;5030791;28;20106;-53
2022/02/05 01:24:44;;;;;;;17.00;2.75;;;5.30;99.90;;;;;;5053780;28;20063;-52
2022/02/05 01:27:15;;;;;;;12.70;2.22;;;5.30;99.90;;;;;;5052253;28;20044;-54
2022/02/05 01:30:19;;;;;;;16.70;2.67;;;5.30;99.90;;;;;;5040319;28;20501;-52
2022/02/05 01:32:35;;;;;;;22.85;2.90;;;5.30;99.90;;;;;;5027027;28;20045;-53
2022/02/05 01:58:57;;;;;;;16.00;2.78;;;5.40;99.90;;;;;;5051922;28;20393;-50
2022/02/05 02:13:08;;;;;;;22.90;3.10;;;5.40;99.90;;;;;;5045781;28;20045;-53
2022/02/05 02:15:43;;;;;;;21.15;2.63;;;5.40;99.90;;;;;;5028445;28;20107;-53
2022/02/05 02:18:19;;;;;;;23.48;3.33;;;5.40;99.90;;;;;;4995621;28;20029;-55
2022/02/05 02:21:15;;;;;;;15.18;2.95;;;5.30;99.90;;;;;;5007521;28;20038;-53
2022/02/05 02:29:49;;;;;;;21.67;3.17;;;5.30;99.90;;;;;;5028630;28;20049;-51
2022/02/05 02:31:48;;;;;;;22.08;2.85;;;5.30;99.90;;;;;;5018771;28;20048;-50
2022/02/05 02:34:19;;;;;;;14.00;2.85;;;5.30;99.90;;;;;;5014627;28;20052;-50
2022/02/05 02:37:03;;;;;;;11.73;2.55;;;5.30;99.90;;;;;;5032553;28;20125;-50
2022/02/05 02:39:37;;;;;;;17.08;3.35;;;5.30;99.90;;;;;;5032612;28;20037;-50
2022/02/05 02:42:08;;;;;;;16.08;2.33;;;5.30;99.90;;;;;;5034197;28;20042;-49
2022/02/05 02:44:33;;;;;;;13.82;2.45;;;5.30;99.90;;;;;;5021686;28;20037;-50
2022/02/05 02:46:59;;;;;;;20.63;3.38;;;5.30;99.90;;;;;;5024185;28;20090;-49
2022/02/05 02:58:16;;;;;;;16.50;3.20;;;5.30;99.90;;;;;;5040933;28;20056;-50
2022/02/05 03:00:40;;;;;;;15.40;2.38;;;5.30;99.90;;;;;;5022465;28;20049;-53
2022/02/05 03:03:06;;;;;;;20.08;3.20;;;5.30;99.90;;;;;;5023743;28;20037;-54
2022/02/05 03:05:31;;;;;;;17.67;3.72;;;5.30;99.90;;;;;;5024877;28;20536;-54
2022/02/05 03:07:57;;;;;;;16.45;2.65;;;5.30;99.90;;;;;;5031016;28;20072;-50
2022/02/05 03:10:22;;;;;;;21.85;3.97;;;5.30;99.90;;;;;;5048006;28;20830;-54
2022/02/05 03:12:48;;;;;;;13.82;2.92;;;5.30;99.90;;;;;;5050570;28;20043;-54
2022/02/05 03:15:18;;;;;;;15.98;3.05;;;5.30;99.90;;;;;;5051860;28;20048;-52
2022/02/05 03:18:03;;;;;;;17.23;2.90;;;5.30;99.90;;;;;;5051834;28;20501;-54
2022/02/05 03:20:29;;;;;;;14.25;2.42;;;5.30;99.90;;;;;;5052012;28;20037;-53
2022/02/05 03:22:54;;;;;;;21.35;3.50;;;5.20;99.90;;;;;;5034263;28;20091;-54
2022/02/05 03:25:20;;;;;;;12.88;2.72;;;5.20;99.90;;;;;;5031829;28;20077;-54
2022/02/05 03:27:45;;;;;;;14.43;2.67;;;5.20;99.90;;;;;;5046126;28;20095;-53
2022/02/05 03:30:11;;;;;;;16.58;3.10;;;5.20;99.90;;;;;;5051531;28;20120;-54
2022/02/05 03:32:37;;;;;;;24.85;3.53;;;5.30;99.90;;;;;;5050309;28;20051;-54
2022/02/05 03:35:03;;;;;;;17.20;2.92;;;5.20;99.90;;;;;;5051435;28;20079;-54
2022/02/05 03:37:29;;;;;;;14.65;2.70;;;5.20;99.90;;;;;;5050105;28;20060;-54
2022/02/05 03:39:54;;;;;;;17.48;3.45;;;5.20;99.90;;;;;;5051626;28;20048;-54
2022/02/05 03:42:20;;;;;;;15.45;3.22;;;5.20;99.90;;;;;;5009690;28;20037;-54
2022/02/05 03:44:46;;;;;;;18.45;2.75;;;5.10;99.90;;;;;;5027690;28;20046;-53
2022/02/05 03:47:12;;;;;;;18.60;2.80;;;5.10;99.90;;;;;;5026612;28;20034;-50
2022/02/05 03:49:38;;;;;;;18.10;2.78;;;5.00;99.90;;;;;;5000639;28;20523;-50
2022/02/05 03:52:04;;;;;;;16.90;3.22;;;5.10;99.90;;;;;;5031607;28;20038;-53
2022/02/05 03:54:31;;;;;;;18.42;2.88;;;5.10;99.90;;;;;;5031478;28;20045;-53
2022/02/05 03:56:57;;;;;;;13.35;3.08;;;5.00;99.90;;;;;;5037564;28;20094;-53
2022/02/05 03:59:22;;;;;;;19.10;3.67;;;4.90;99.90;;;;;;5050219;28;20041;-52
2022/02/05 04:01:48;;;;;;;14.02;2.85;;;4.90;99.90;;;;;;5051112;28;20044;-54
2022/02/05 04:04:14;;;;;;;16.20;2.92;;;4.80;99.90;;;;;;5050159;28;20455;-52
2022/02/05 04:06:39;;;;;;;17.80;2.92;;;4.80;99.90;;;;;;5054733;28;20033;-49
2022/02/05 04:09:11;;;;;;;14.27;2.30;;;4.80;99.90;;;;;;5055282;28;20689;-49
2022/02/05 04:11:55;;;;;;;24.60;3.13;;;4.70;99.90;;;;;;5048653;28;20117;-50
2022/02/05 04:17:05;;;;;;;23.88;3.85;;;4.70;99.90;;;;;;5055234;28;20566;-50
2022/02/05 04:19:31;;;;;;;13.23;2.63;;;4.70;99.90;;;;;;5037164;28;20029;-50
2022/02/05 04:21:57;;;;;;;21.83;3.05;;;4.60;99.90;;;;;;5023515;28;20034;-50
2022/02/05 04:24:23;;;;;;;19.55;3.47;;;4.60;99.90;;;;;;5015357;28;20076;-51
2022/02/05 04:26:48;;;;;;;16.77;3.05;;;4.60;99.90;;;;;;4997296;28;20045;-51
2022/02/05 04:29:14;;;;;;;20.52;3.30;;;4.60;99.90;;;;;;5037183;28;20190;-50
2022/02/05 04:31:40;;;;;;;17.75;3.22;;;4.60;99.90;;;;;;5035073;28;20068;-50
2022/02/05 04:34:06;;;;;;;19.90;3.03;;;4.60;99.90;;;;;;5041939;28;20041;-49
2022/02/05 04:36:34;;;;;;;16.55;2.70;;;4.60;99.90;;;;;;5055098;28;20053;-54
2022/02/05 04:39:06;;;;;;;17.60;2.78;;;4.60;99.90;;;;;;5053408;28;20409;-54
2022/02/05 04:41:41;;;;;;;16.33;3.05;;;4.50;99.90;;;;;;5054514;28;20047;-53
2022/02/05 04:49:55;;;;;;;17.42;3.28;;;4.50;99.90;;;;;;5051450;28;20038;-50
2022/02/05 05:01:20;;;;;;;14.60;2.70;;;4.40;99.90;;;;;;5010736;28;20610;-54
2022/02/05 05:04:01;;;;;;;17.65;3.10;;;4.50;99.90;;;;;;5040013;28;20033;-54
2022/02/05 05:09:21;;;;;;;19.88;2.97;;;4.40;99.90;;;;;;5053026;28;20100;-55
2022/02/05 05:12:18;;;;;;;12.43;3.35;;;4.40;99.90;;;;;;5053879;28;20513;-53
2022/02/05 05:20:12;;;;;;;16.15;2.75;;;4.50;99.90;;;;;;5012924;28;20104;-55
2022/02/05 05:22:38;;;;;;;16.90;2.67;;;4.40;99.90;;;;;;5014135;28;20037;-53
2022/02/05 05:25:04;;;;;;;19.73;3.22;;;4.40;99.90;;;;;;5037701;28;20045;-52
2022/02/05 05:27:31;;;;;;;19.85;3.08;;;4.50;99.90;;;;;;5053520;28;20045;-54
2022/02/05 05:29:56;;;;;;;15.57;3.25;;;4.50;99.90;;;;;;5034607;28;20041;-55
2022/02/05 05:32:22;;;;;;;14.13;2.72;;;4.50;99.90;;;;;;5047929;28;20043;-52
2022/02/05 05:34:48;;;;;;;18.55;2.80;;;4.40;99.90;;;;;;5053651;28;20071;-54
2022/02/05 05:37:14;;;;;;;14.43;2.55;;;4.40;99.90;;;;;;5053517;28;20040;-52
2022/02/05 05:39:43;;;;;;;27.30;4.50;;;4.40;99.90;;;;;;5053797;28;20036;-53
2022/02/05 05:42:13;;;;;;;15.10;2.70;;;4.40;99.90;;;;;;5052647;28;20040;-55
2022/02/05 05:47:20;;;;;;;18.95;2.85;;;4.50;99.90;;;;;;5033025;28;20045;-53
2022/02/05 05:52:22;;;;;;;17.00;3.03;;;4.60;99.90;;;;;;5032255;28;20059;-52
2022/02/05 05:54:48;;;;;;;17.02;3.20;;;4.60;99.90;;;;;;5032776;28;20409;-54
2022/02/05 05:57:14;;;;;;;13.68;2.97;;;4.60;99.90;;;;;;5033116;28;20045;-52
2022/02/05 05:59:41;;;;;;;19.05;3.20;;;4.70;99.90;;;;;;5036232;28;20065;-53
2022/02/05 06:02:08;;;;;;;18.45;3.28;;;4.60;99.90;;;;;;5021868;28;20113;-55
2022/02/05 06:04:34;;;;;;;17.23;2.47;;;4.60;99.90;;;;;;5032792;28;20045;-55
2022/02/05 06:06:59;;;;;;;14.25;2.92;;;4.60;99.90;;;;;;5028815;28;20411;-54
2022/02/05 06:09:25;;;;;;;14.10;2.58;;;4.70;99.90;;;;;;5032601;28;20524;-52
2022/02/05 06:11:51;;;;;;;16.45;2.80;;;4.60;99.90;;;;;;5023969;28;20052;-56
2022/02/05 06:14:21;;;;;;;16.48;2.80;;;4.60;99.90;;;;;;5025390;28;20412;-56
2022/02/05 06:16:53;;;;;;;12.32;2.60;;;4.50;99.90;;;;;;5031661;28;20037;-55
2022/02/05 06:19:20;;;;;;;14.35;2.78;;;4.50;99.90;;;;;;5039703;28;20033;-56
2022/02/05 06:21:46;;;;;;;18.73;2.38;;;4.50;99.90;;;;;;5034329;28;20120;-55
2022/02/05 06:24:12;;;;;;;20.20;2.67;;;4.40;99.90;;;;;;5028251;28;20109;-56
2022/02/05 06:26:37;;;;;;;16.65;2.72;;;4.40;99.90;;;;;;5028022;28;20040;-55
2022/02/05 06:29:03;;;;;;;15.07;2.72;;;4.40;99.90;;;;;;5026305;28;20033;-55
2022/02/05 06:31:28;;;;;;;18.27;3.00;;;4.40;99.90;;;;;;5022779;28;20067;-55
2022/02/05 06:33:54;;;;;;;20.77;3.30;;;4.30;99.90;;;;;;5026145;28;20050;-56
2022/02/05 06:36:19;;;;;;;20.83;2.80;;;4.30;99.90;;;;;;5024530;28;20041;-56
2022/02/05 06:38:45;;;;;;;17.92;2.78;;;4.30;99.90;;;;;;5025353;28;20501;-56
2022/02/05 06:41:10;;;;;;;13.55;3.13;;;4.30;99.90;;;;;;5023166;28;20037;-55
2022/02/05 06:43:36;;;;;;;18.42;3.03;;;4.20;99.90;;;;;;5021803;28;20486;-56
2022/02/05 06:46:02;;;;;;;14.98;2.63;;;4.20;99.90;;;;;;5021392;28;20536;-56
2022/02/05 06:48:27;;;;;;;14.15;3.50;;;4.20;99.90;;;;;;5025105;28;20042;-56
2022/02/05 06:50:53;;;;;;;19.20;3.30;;;4.20;99.90;;;;;;5020775;28;20048;-55
2022/02/05 06:53:18;;;;;;;18.50;2.83;;;4.20;99.90;;;;;;5017325;28;20046;-56
2022/02/05 06:55:44;;;;;;;19.27;3.10;;;4.20;99.90;;;;;;5024474;28;20494;-55
2022/02/05 06:58:09;;;;;;;16.83;2.88;;;4.10;99.90;;;;;;5025711;28;20029;-55
2022/02/05 07:00:35;;;;;;;19.77;2.80;;;4.10;99.90;;;;;;5020056;28;20073;-56
2022/02/05 07:03:00;;;;;;;20.98;3.33;;;4.10;99.90;;;;;;5012045;28;20049;-55
2022/02/05 07:05:26;;;;;;;12.38;2.83;;;4.10;99.90;;;;;;5014639;28;20048;-55
2022/02/05 07:07:51;;;;;;;17.50;3.03;;;4.10;99.90;;;;;;5037211;28;20049;-55
2022/02/05 07:10:17;;;;;;;18.75;2.97;;;4.10;99.90;;;;;;5024968;28;20052;-56
2022/02/05 07:13:02;;;;;;;16.35;3.42;;;4.20;99.90;;;;;;5024502;28;20033;-56
2022/02/05 07:15:32;;;;;;;17.63;3.13;;;4.20;99.90;;;;;;5024271;28;20469;-53
2022/02/05 07:18:29;;;;;;;16.52;2.90;;;4.20;99.90;;;;;;5029303;28;20052;-55
2022/02/05 07:20:50;;;;;;;22.60;4.35;;;4.20;99.90;;;;;;5029194;28;20034;-55
2022/02/05 07:23:42;;;;;;;14.93;3.33;;;4.30;99.90;;;;;;5022006;28;20468;-55
2022/02/05 07:31:40;;;;;;;16.50;2.97;;;4.20;99.90;;;;;;5025052;28;20107;-55
2022/02/05 07:34:06;;;;;;;25.80;4.35;;;4.20;99.90;;;;;;5024084;28;20180;-54
2022/02/05 07:36:31;;;;;;;18.73;3.08;;;4.20;99.90;;;;;;5027492;28;20045;-56
2022/02/05 07:38:57;;;;;;;14.52;3.05;;;4.20;99.90;;;;;;5028982;28;20099;-55
2022/02/05 07:41:22;;;;;;;16.65;2.97;;;4.20;99.90;;;;;;5015952;28;20576;-55
2022/02/05 07:43:48;;;;;;;18.90;2.83;;;4.30;99.90;;;;;;5027932;28;20065;-55
2022/02/05 07:46:14;;;;;;;16.00;2.47;;;4.20;99.90;;;;;;5021239;28;20042;-56
2022/02/05 07:48:40;;;;;;;21.08;3.55;;;4.20;99.90;;;;;;5031248;28;20037;-56
2022/02/05 07:51:07;;;;;;;17.67;3.58;;;4.20;99.90;;;;;;5050624;28;20048;-55
2022/02/05 07:53:33;;;;;;;22.42;3.45;;;4.10;99.90;;;;;;5011885;28;20038;-55
2022/02/05 07:55:59;;;;;;;16.17;2.90;;;4.10;99.90;;;;;;5023916;28;20044;-55
2022/02/05 07:58:25;;;;;;;16.05;3.10;;;4.10;99.90;;;;;;5032152;28;20056;-55
2022/02/05 08:00:52;;;;;;;17.80;3.70;;;4.10;99.90;;;;;;5019647;28;20042;-55
2022/02/05 08:03:18;;;;;;;20.08;2.97;;;4.10;99.90;;;;;;5003025;28;20034;-55
2022/02/05 08:05:44;;;;;;;17.40;3.33;;;4.10;99.90;;;;;;5010989;28;20115;-55
2022/02/05 08:08:14;;;;;;;20.08;3.72;;;4.10;99.90;;;;;;5010897;28;20125;-56
2022/02/05 08:10:50;;;;;;;14.85;3.05;;;4.20;99.90;;;;;;5010991;28;20081;-54
2022/02/05 08:13:17;;;;;;;18.20;2.92;;;4.20;99.90;;;;;;5041929;22;20399;-57
2022/02/05 08:15:50;;;;;;;19.13;2.90;;;4.20;99.90;;;;;;5050110;28;20236;-56
2022/02/05 08:18:16;;;;;;;17.58;3.03;;;4.30;99.90;;;;;;5070863;28;20032;-57
2022/02/05 08:20:41;;;;;;;19.50;3.17;;;4.30;99.90;;;;;;5070558;28;20047;-57
2022/02/05 08:23:07;;;;;;;17.52;2.97;;;4.30;99.90;;;;;;5061871;28;20492;-57
2022/02/05 08:25:32;;;;;;;14.43;3.22;;;4.40;99.90;;;;;;5051203;28;20066;-57
2022/02/05 08:27:58;;;;;;;16.00;2.88;;;4.40;99.90;;;;;;5050705;28;20041;-57
2022/02/05 08:30:23;;;;;;;19.63;3.67;;;4.40;99.90;;;;;;5050666;28;20409;-57
2022/02/05 08:32:49;;;;;;;19.20;3.20;;;4.50;99.90;;;;;;5041695;28;20046;-55
2022/02/05 08:35:14;;;;;;;17.40;3.30;;;4.50;99.90;;;;;;5030852;28;20115;-55
2022/02/05 08:37:45;;;;;;;19.58;3.20;;;4.50;99.90;;;;;;5030903;28;20048;-56
2022/02/05 08:40:12;;;;;;;24.35;3.80;;;4.50;99.90;;;;;;5030954;28;20041;-57
2022/02/05 08:42:38;;;;;;;21.63;3.47;;;4.60;99.90;;;;;;5030814;28;20042;-55
2022/02/05 08:45:04;;;;;;;15.13;3.38;;;4.70;99.90;;;;;;5030748;28;20049;-57
2022/02/05 08:47:31;;;;;;;22.83;3.40;;;4.70;99.90;;;;;;5038757;28;20081;-55
2022/02/05 08:49:56;;;;;;;18.10;3.90;;;4.80;99.90;;;;;;5051076;28;20452;-56
2022/02/05 08:52:23;;;;;;;19.80;3.38;;;4.90;99.90;;;;;;5053577;28;20127;-55
2022/02/05 08:54:48;;;;;;;17.58;3.60;;;4.90;99.90;;;;;;5054275;28;20099;-56
2022/02/05 08:57:14;;;;;;;19.15;3.25;;;4.90;99.90;;;;;;5054088;28;20037;-55
2022/02/05 08:59:51;;;;;;;19.60;3.38;;;5.00;99.90;;;;;;5052760;28;20463;-55
2022/02/05 09:02:36;;;;;;;15.02;3.03;;;5.00;99.90;;;;;;5053000;28;20041;-50
2022/02/05 09:05:19;;;;;;;23.05;3.25;;;5.10;99.90;;;;;;5054415;28;20037;-50
2022/02/05 09:07:45;;;;;;;15.60;3.42;;;5.20;99.90;;;;;;5053834;28;20118;-53
2022/02/05 09:13:10;;;;;;;19.10;3.30;;;5.30;99.90;;;;;;5053822;28;20432;-51
2022/02/05 09:15:36;;;;;;;15.30;3.25;;;5.40;99.90;;;;;;5050205;28;20120;-50
2022/02/05 09:18:03;;;;;;;14.40;2.92;;;5.40;99.90;;;;;;5053628;28;20558;-51
2022/02/05 09:20:29;;;;;;;18.17;4.00;;;5.40;99.90;;;;;;5054168;28;20048;-52
2022/02/05 09:22:55;;;;;;;15.20;3.08;;;5.40;99.90;;;;;;5053928;28;20467;-52
2022/02/05 09:25:22;;;;;;;14.43;3.22;;;5.40;99.90;;;;;;5053688;28;20554;-50
2022/02/05 09:27:49;;;;;;;19.58;3.28;;;5.40;99.90;;;;;;5053363;28;20508;-51
2022/02/05 09:30:17;;;;;;;14.50;3.65;;;5.40;99.90;;;;;;5052752;28;20045;-50
2022/02/05 09:32:44;;;;;;;14.68;3.47;;;5.40;99.90;;;;;;5053479;28;20091;-50
2022/02/05 09:35:13;;;;;;;21.58;3.65;;;5.40;99.90;;;;;;5053344;28;20041;-54
2022/02/05 09:37:38;;;;;;;15.52;2.83;;;5.50;99.90;;;;;;5053337;28;20040;-55
2022/02/05 09:40:05;;;;;;;14.75;3.20;;;5.50;99.90;;;;;;5025625;28;20091;-56
2022/02/05 09:42:31;;;;;;;15.15;3.13;;;5.50;99.90;;;;;;5033564;28;20068;-55
2022/02/05 09:45:02;;;;;;;16.35;3.67;;;5.50;99.90;;;;;;5038116;28;20081;-54
2022/02/05 09:47:28;;;;;;;19.38;3.55;;;5.50;99.90;;;;;;5024804;28;20037;-56
2022/02/05 09:49:54;;;;;;;19.98;4.78;;;5.50;99.90;;;;;;5031344;28;20162;-55
2022/02/05 09:52:25;;;;;;;21.42;3.83;;;5.50;99.90;;;;;;5013450;28;20042;-54
2022/02/05 09:54:52;;;;;;;18.90;3.15;;;5.50;99.90;;;;;;5012151;28;20042;-55
2022/02/05 09:57:20;;;;;;;15.85;3.10;;;5.60;99.90;;;;;;5017180;28;20037;-55
2022/02/05 09:59:54;;;;;;;14.70;3.47;;;5.60;99.90;;;;;;5025804;28;20037;-54
2022/02/05 10:02:36;;;;;;;20.90;3.40;;;5.70;99.90;;;;;;5049214;28;20037;-55
2022/02/05 10:05:09;;;;;;;15.10;3.17;;;5.80;99.90;;;;;;5053233;28;20468;-55
2022/02/05 10:07:52;;;;;;;19.02;3.20;;;5.90;99.90;;;;;;5052846;28;20492;-56
2022/02/05 10:10:18;;;;;;;12.00;3.33;;;5.90;99.90;;;;;;5051632;28;20220;-54
2022/02/05 10:12:43;;;;;;;17.70;3.88;;;6.00;99.90;;;;;;5052754;28;20047;-54
2022/02/05 10:15:10;;;;;;;21.17;3.60;;;6.00;99.90;;;;;;5034951;28;20042;-56
2022/02/05 10:17:43;;;;;;;20.25;4.13;;;6.00;99.90;;;;;;5032761;28;20409;-55
2022/02/05 10:20:12;;;;;;;15.60;3.85;;;6.10;99.90;;;;;;5031575;28;20045;-55
2022/02/05 10:22:43;;;;;;;16.27;3.33;;;6.20;99.90;;;;;;5032671;28;20132;-54
2022/02/05 10:25:21;;;;;;;19.27;3.35;;;6.30;99.90;;;;;;5032433;28;20149;-54
2022/02/05 10:27:48;;;;;;;18.52;3.25;;;6.40;99.90;;;;;;5032321;28;20474;-53
2022/02/05 10:30:20;;;;;;;15.77;3.35;;;6.40;99.90;;;;;;5032987;28;20041;-54
2022/02/05 10:32:49;;;;;;;15.75;3.65;;;6.40;99.90;;;;;;5032517;28;20045;-55
2022/02/05 10:35:24;;;;;;;16.70;3.67;;;6.40;99.90;;;;;;5015204;28;20448;-55
2022/02/05 10:43:07;;;;;;;25.73;4.53;;;6.50;99.90;;;;;;5026463;28;20049;-55
2022/02/05 10:45:51;;;;;;;17.83;3.85;;;6.60;99.90;;;;;;5032263;28;20041;-55
2022/02/05 10:48:19;;;;;;;10.45;3.00;;;6.60;99.90;;;;;;5032301;28;20124;-55
2022/02/05 10:50:47;;;;;;;14.60;3.13;;;6.60;99.90;;;;;;5032320;28;20037;-56
2022/02/05 10:53:24;;;;;;;13.68;2.95;;;6.50;99.90;;;;;;5032179;28;20565;-54
2022/02/05 11:06:00;;;;;;;14.52;3.08;;;6.40;99.90;;;;;;5012141;28;20096;-54
2022/02/05 11:08:27;;;;;;;13.07;2.85;;;6.50;99.90;;;;;;5012156;28;20046;-55
2022/02/05 11:11:21;;;;;;;17.38;3.30;;;6.50;99.90;;;;;;5024763;28;20075;-52
2022/02/05 11:14:07;;;;;;;12.40;2.72;;;6.40;99.90;;;;;;5051148;28;20055;-53
2022/02/05 11:16:48;;;;;;;17.27;3.00;;;6.50;99.90;;;;;;5051165;28;20559;-54
2022/02/05 11:19:14;;;;;;;20.80;3.53;;;6.40;99.90;;;;;;5051552;28;20111;-54
2022/02/05 11:21:43;;;;;;;14.88;3.50;;;6.50;99.90;;;;;;5051800;28;20167;-54
2022/02/05 11:24:11;;;;;;;16.10;3.58;;;6.50;99.90;;;;;;5049423;28;20034;-56
2022/02/05 11:26:37;;;;;;;15.93;3.13;;;6.50;99.90;;;;;;5035116;28;20509;-55
2022/02/05 11:29:04;;;;;;;17.63;3.55;;;6.50;99.90;;;;;;5011953;28;20064;-55
2022/02/05 11:31:40;;;;;;;16.58;3.30;;;6.50;99.90;;;;;;5011818;28;20069;-54
2022/02/05 11:34:31;;;;;;;15.77;3.42;;;6.60;99.90;;;;;;5011963;28;20041;-56
2022/02/05 11:37:06;;;;;;;19.83;3.22;;;6.60;99.90;;;;;;5011727;28;20100;-55
2022/02/05 11:39:50;;;;;;;9.48;2.80;;;6.60;99.90;;;;;;5031260;28;20038;-54
2022/02/05 11:42:27;;;;;;;11.55;3.10;;;6.70;99.90;;;;;;5010292;28;20513;-51
2022/02/05 11:44:54;;;;;;;15.18;3.20;;;6.70;99.90;;;;;;5029778;28;20048;-50
2022/02/05 11:47:19;;;;;;;17.65;3.30;;;6.70;99.90;;;;;;5031311;28;20405;-50
2022/02/05 11:49:55;;;;;;;13.43;2.90;;;6.70;99.90;;;;;;5031442;28;20041;-51
2022/02/05 11:52:40;;;;;;;16.00;2.92;;;6.80;99.90;;;;;;5031238;28;20075;-54
2022/02/05 11:55:15;;;;;;;12.77;3.30;;;6.80;99.90;;;;;;5030155;28;20081;-52
2022/02/05 11:57:44;;;;;;;12.57;3.00;;;6.80;99.90;;;;;;5043042;28;20407;-50
2022/02/05 12:00:11;;;;;;;15.93;3.00;;;6.80;99.90;;;;;;5050764;28;20114;-50
2022/02/05 12:02:43;;;;;;;15.77;3.08;;;6.80;99.90;;;;;;5045269;28;20538;-54
2022/02/05 12:05:13;;;;;;;16.20;3.37;;;6.90;99.90;;;;;;5020525;28;20034;-56
2022/02/05 12:07:57;;;;;;;13.45;2.63;;;6.90;99.90;;;;;;5027711;28;20072;-56
2022/02/05 12:10:46;;;;;;;15.73;3.03;;;6.90;99.90;;;;;;5031539;28;20071;-57
2022/02/05 12:13:15;;;;;;;18.15;2.60;;;7.00;99.90;;;;;;5023520;28;20433;-54
2022/02/05 12:15:45;;;;;;;15.80;3.30;;;7.00;99.90;;;;;;5031703;28;20053;-54
2022/02/05 12:21:52;;;;;;;11.35;2.60;;;7.00;99.90;;;;;;5030381;28;20133;-56
2022/02/05 12:26:13;;;;;;;15.30;2.50;;;7.00;99.90;;;;;;5012337;28;20045;-54
2022/02/05 12:28:40;;;;;;;11.13;2.40;;;6.90;99.90;;;;;;5053282;28;20439;-56
2022/02/05 12:31:28;;;;;;;13.27;2.65;;;6.90;99.90;;;;;;5055129;28;20123;-55
2022/02/05 12:33:59;;;;;;;15.98;2.38;;;6.90;99.90;;;;;;5052190;28;20045;-51
2022/02/05 12:36:33;;;;;;;11.43;2.22;;;7.00;99.90;;;;;;5026493;28;20037;-53
2022/02/05 12:39:00;;;;;;;18.63;2.55;;;7.00;99.90;;;;;;5042691;28;20041;-51
2022/02/05 12:41:29;;;;;;;10.50;2.20;;;7.10;99.90;;;;;;5053652;28;20072;-50
2022/02/05 12:44:07;;;;;;;10.57;2.33;;;7.10;99.90;;;;;;5054810;28;20037;-50
2022/02/05 12:46:43;;;;;;;11.57;2.30;;;7.20;99.90;;;;;;5054400;28;20059;-50
2022/02/05 12:49:18;;;;;;;8.55;2.13;;;7.20;99.90;;;;;;5054676;28;20033;-50
2022/02/05 12:51:45;;;;;;;13.93;2.55;;;7.30;99.90;;;;;;5052403;28;20029;-50
2022/02/05 12:54:15;;;;;;;12.27;2.33;;;7.40;99.90;;;;;;5054432;28;20466;-50
2022/02/05 12:56:42;;;;;;;18.15;2.47;;;7.50;99.90;;;;;;5054242;28;20119;-51
2022/02/05 12:59:13;;;;;;;9.98;2.22;;;7.50;99.90;;;;;;5054223;28;20112;-51
2022/02/05 13:01:51;;;;;;;21.63;3.47;;;7.60;99.70;;;;;;5049024;28;20448;-51
2022/02/05 13:04:25;;;;;;;12.93;2.53;;;7.60;99.90;;;;;;5034559;28;20029;-50
2022/02/05 13:07:03;;;;;;;13.38;2.22;;;7.70;99.90;;;;;;5034236;28;20060;-50
2022/02/05 13:09:30;;;;;;;15.45;2.28;;;7.80;99.40;;;;;;5032235;28;20418;-50
2022/02/05 13:12:03;;;;;;;15.10;2.33;;;7.90;99.00;;;;;;5042913;28;20075;-51
2022/02/05 13:14:34;;;;;;;12.70;2.72;;;7.80;98.80;;;;;;5041998;28;20099;-52
2022/02/05 13:17:00;;;;;;;11.98;1.92;;;7.90;97.90;;;;;;5024488;28;20033;-51
2022/02/05 13:19:28;;;;;;;16.70;2.92;;;7.80;96.80;;;;;;5034087;28;20088;-50
2022/02/05 13:24:58;;;;;;;16.55;2.80;;;7.70;97.20;;;;;;5050924;28;20079;-50
2022/02/05 13:27:43;;;;;;;11.82;2.60;;;7.70;96.50;;;;;;5053788;28;20040;-49
2022/02/05 13:36:28;;;;;;;13.50;2.58;;;7.60;96.50;;;;;;5053608;28;20052;-50
2022/02/05 13:39:17;;;;;;;11.70;2.25;;;7.50;96.90;;;;;;5052449;28;20041;-50
2022/02/05 13:41:52;;;;;;;14.82;2.53;;;7.50;97.50;;;;;;5053681;28;20033;-56
2022/02/05 13:44:23;;;;;;;13.25;2.10;;;7.50;97.60;;;;;;5053545;28;20049;-56
2022/02/05 13:47:13;;;;;;;9.73;2.00;;;7.50;98.30;;;;;;5053554;28;20048;-56
2022/02/05 13:49:39;;;;;;;8.93;2.10;;;7.50;97.20;;;;;;5053627;28;20052;-55
2022/02/05 13:52:09;;;;;;;12.05;2.55;;;7.60;96.80;;;;;;5052345;28;20554;-55
2022/02/05 13:54:37;;;;;;;12.10;2.08;;;7.70;96.20;;;;;;5053363;28;20531;-56
2022/02/05 13:57:03;;;;;;;9.93;1.90;;;7.70;94.90;;;;;;5053610;28;20063;-50
2022/02/05 13:59:30;;;;;;;10.88;1.92;;;7.70;95.50;;;;;;5053151;28;20048;-52
2022/02/05 14:02:10;;;;;;;11.15;1.98;;;7.70;95.20;;;;;;5051822;28;20041;-50
2022/02/05 14:04:35;;;;;;;13.50;1.90;;;7.70;95.20;;;;;;5052321;28;20111;-50
2022/02/05 14:07:01;;;;;;;15.35;2.42;;;7.80;94.90;;;;;;5052957;28;20556;-50
2022/02/05 14:09:29;;;;;;;7.95;2.05;;;7.80;94.40;;;;;;5048778;28;20497;-50
2022/02/05 14:11:59;;;;;;;16.10;2.42;;;7.70;94.70;;;;;;5031725;28;20046;-51
2022/02/05 14:14:26;;;;;;;14.48;2.28;;;7.70;95.10;;;;;;5027595;22;20072;-56
2022/02/05 14:16:52;;;;;;;11.20;2.30;;;7.70;94.60;;;;;;4979121;28;20133;-55
2022/02/05 14:19:28;;;;;;;17.48;3.13;;;7.70;94.10;;;;;;5014632;28;20117;-55
2022/02/05 14:21:56;;;;;;;9.27;2.13;;;7.60;94.90;;;;;;5004796;28;20049;-57
2022/02/05 14:24:29;;;;;;;17.17;2.92;;;7.60;94.80;;;;;;5012854;28;20088;-55
2022/02/05 14:27:07;;;;;;;;;;;7.60;94.80;;;;;;5010879;28;20619;-56
2022/02/05 14:32:24;;;;;;;9.63;3.05;;;7.70;94.90;;;;;;5012249;28;20081;-56
2022/02/05 14:40:41;;;;;;;11.07;2.13;;;7.70;94.20;;;;;;4989954;28;20104;-55
2022/02/05 14:43:08;;;;;;;10.70;2.95;;;7.70;94.80;;;;;;5012448;28;20038;-56
2022/02/05 14:45:33;;;;;;;10.52;2.00;;;7.60;95.10;;;;;;5010960;28;20060;-54
2022/02/05 14:48:00;;;;;;;9.35;2.60;;;7.60;94.40;;;;;;5011728;28;20124;-56
2022/02/05 14:50:25;;;;;;;10.10;1.73;;;7.60;94.40;;;;;;5012353;28;20048;-56
2022/02/05 14:52:51;;;;;;;8.45;2.33;;;7.60;94.70;;;;;;5009681;28;20417;-57
2022/02/05 14:55:18;;;;;;;10.80;2.20;;;7.50;95.60;;;;;;5005764;28;20176;-56
2022/02/05 14:57:45;;;;;;;9.25;1.90;;;7.50;95.60;;;;;;5011669;28;20067;-56
2022/02/05 15:00:11;;;;;;;12.80;2.47;;;7.50;95.60;;;;;;5007574;28;20037;-56
2022/02/05 15:02:36;;;;;;;13.90;2.00;;;7.40;95.70;;;;;;5012029;28;20092;-56
2022/02/05 15:05:11;;;;;;;9.57;2.10;;;7.40;95.50;;;;;;5012303;28;20157;-56
2022/02/05 15:07:40;;;;;;;11.15;2.25;;;7.30;96.20;;;;;;5011986;28;20116;-56
2022/02/05 15:10:09;;;;;;;17.05;2.67;;;7.30;96.40;;;;;;5012012;28;20128;-54
2022/02/05 15:12:36;;;;;;;9.73;1.85;;;7.30;96.40;;;;;;4994437;28;20045;-56
2022/02/05 15:15:01;;;;;;;9.07;1.90;;;7.30;97.00;;;;;;5012193;28;20121;-56
2022/02/05 15:17:28;;;;;;;13.55;2.00;;;7.30;97.30;;;;;;5011694;28;20169;-56
2022/02/05 15:19:54;;;;;;;10.90;2.08;;;7.30;97.30;;;;;;5003665;28;20053;-56
2022/02/05 15:22:21;;;;;;;12.15;2.55;;;7.30;97.40;;;;;;5011963;28;20033;-54
2022/02/05 15:24:46;;;;;;;9.40;1.77;;;7.20;98.00;;;;;;4993755;28;20406;-56
2022/02/05 15:27:12;;;;;;;15.32;2.30;;;7.20;98.50;;;;;;5010501;28;20042;-55
2022/02/05 15:29:38;;;;;;;10.30;2.10;;;7.20;97.60;;;;;;5011634;28;20498;-55
2022/02/05 15:32:04;;;;;;;12.57;2.13;;;7.20;98.00;;;;;;5011761;28;20042;-55
2022/02/05 15:34:29;;;;;;;10.80;2.00;;;7.20;97.80;;;;;;5011729;28;20033;-56
2022/02/05 15:37:03;;;;;;;12.50;2.00;;;7.20;98.20;;;;;;5011552;28;20038;-56
2022/02/05 15:39:49;;;;;;;9.90;2.22;;;7.20;98.40;;;;;;5010944;28;20422;-56
2022/02/05 15:45:02;;;;;;;16.00;2.72;;;7.20;98.50;;;;;;5011648;28;20537;-56